sensor_id;sensor_type;location;lat;lon;timestamp;P1;durP1;ratioP1;P2;durP2;ratioP2
20073;SDS011;10197;54.282;10.078;2024-01-07T00:02:00;2.80;;;2.53;;
20073;SDS011;10197;54.282;10.078;2024-01-07T00:04:28;3.22;;;2.30;;
20073;SDS011;10197;54.282;10.078;2024-01-07T00:06:55;4.07;;;2.65;;
20073;SDS011;10197;54.282;10.078;2024-01-07T00:09:22;7.30;;;3.33;;
20073;SDS011;10197;54.282;10.078;2024-01-07T00:11:49;4.45;;;2.85;;
20073;SDS011;10197;54.282;10.078;2024-01-07T00:14:16;8.80;;;2.97;;
20073;SDS011;10197;54.282;10.078;2024-01-07T00:16:42;6.13;;;2.72;;
20073;SDS011;10197;54.282;10.078;2024-01-07T00:19:09;7.32;;;2.80;;
20073;SDS011;10197;54.282;10.078;2024-01-07T00:21:37;4.32;;;2.58;;
20073;SDS011;10197;54.282;10.078;2024-01-07T00:24:04;6.70;;;3.03;;
20073;SDS011;10197;54.282;10.078;2024-01-07T00:26:31;4.80;;;3.00;;
20073;SDS011;10197;54.282;10.078;2024-01-07T00:28:58;5.22;;;2.50;;
20073;SDS011;10197;54.282;10.078;2024-01-07T00:31:25;3.55;;;2.60;;
20073;SDS011;10197;54.282;10.078;2024-01-07T00:33:51;3.40;;;2.83;;
20073;SDS011;10197;54.282;10.078;2024-01-07T00:36:18;2.60;;;2.35;;
20073;SDS011;10197;54.282;10.078;2024-01-07T00:38:46;2.95;;;2.50;;
20073;SDS011;10197;54.282;10.078;2024-01-07T00:41:13;2.63;;;2.38;;
20073;SDS011;10197;54.282;10.078;2024-01-07T00:43:40;4.45;;;2.42;;
20073;SDS011;10197;54.282;10.078;2024-01-07T00:46:07;3.47;;;2.47;;
20073;SDS011;10197;54.282;10.078;2024-01-07T00:48:34;2.67;;;2.47;;
20073;SDS011;10197;54.282;10.078;2024-01-07T00:51:00;4.20;;;2.40;;
20073;SDS011;10197;54.282;10.078;2024-01-07T00:53:27;2.50;;;2.30;;
20073;SDS011;10197;54.282;10.078;2024-01-07T00:55:56;4.90;;;2.30;;
20073;SDS011;10197;54.282;10.078;2024-01-07T00:58:23;2.92;;;2.55;;
20073;SDS011;10197;54.282;10.078;2024-01-07T01:00:50;3.60;;;2.65;;
20073;SDS011;10197;54.282;10.078;2024-01-07T01:03:19;2.97;;;2.53;;
20073;SDS011;10197;54.282;10.078;2024-01-07T01:05:45;4.90;;;2.90;;
20073;SDS011;10197;54.282;10.078;2024-01-07T01:08:12;6.32;;;2.50;;
20073;SDS011;10197;54.282;10.078;2024-01-07T01:10:39;2.53;;;2.33;;
20073;SDS011;10197;54.282;10.078;2024-01-07T01:13:07;3.92;;;2.60;;
20073;SDS011;10197;54.282;10.078;2024-01-07T01:15:34;2.85;;;2.65;;
20073;SDS011;10197;54.282;10.078;2024-01-07T01:18:00;3.20;;;2.47;;
20073;SDS011;10197;54.282;10.078;2024-01-07T01:20:27;3.38;;;2.30;;
20073;SDS011;10197;54.282;10.078;2024-01-07T01:22:54;4.57;;;2.22;;
20073;SDS011;10197;54.282;10.078;2024-01-07T01:25:21;3.60;;;2.50;;
20073;SDS011;10197;54.282;10.078;2024-01-07T01:27:47;2.97;;;2.17;;
20073;SDS011;10197;54.282;10.078;2024-01-07T01:30:16;4.43;;;2.58;;
20073;SDS011;10197;54.282;10.078;2024-01-07T01:32:44;4.35;;;2.30;;
20073;SDS011;10197;54.282;10.078;2024-01-07T01:35:10;4.03;;;2.45;;
20073;SDS011;10197;54.282;10.078;2024-01-07T01:37:37;3.03;;;2.17;;
20073;SDS011;10197;54.282;10.078;2024-01-07T01:40:04;3.72;;;2.75;;
20073;SDS011;10197;54.282;10.078;2024-01-07T01:42:32;3.53;;;2.30;;
20073;SDS011;10197;54.282;10.078;2024-01-07T01:44:58;5.35;;;2.50;;
20073;SDS011;10197;54.282;10.078;2024-01-07T01:47:28;2.42;;;2.10;;
20073;SDS011;10197;54.282;10.078;2024-01-07T01:49:55;3.60;;;2.55;;
20073;SDS011;10197;54.282;10.078;2024-01-07T01:52:22;2.72;;;2.40;;
20073;SDS011;10197;54.282;10.078;2024-01-07T01:54:50;5.28;;;3.05;;
20073;SDS011;10197;54.282;10.078;2024-01-07T01:57:19;3.15;;;2.30;;
20073;SDS011;10197;54.282;10.078;2024-01-07T01:59:48;3.90;;;2.40;;
20073;SDS011;10197;54.282;10.078;2024-01-07T02:02:14;3.00;;;2.30;;
20073;SDS011;10197;54.282;10.078;2024-01-07T02:04:43;5.07;;;2.78;;
20073;SDS011;10197;54.282;10.078;2024-01-07T02:07:10;3.47;;;2.22;;
20073;SDS011;10197;54.282;10.078;2024-01-07T02:09:37;3.88;;;2.60;;
20073;SDS011;10197;54.282;10.078;2024-01-07T02:12:06;3.97;;;2.58;;
20073;SDS011;10197;54.282;10.078;2024-01-07T02:14:37;3.17;;;2.40;;
20073;SDS011;10197;54.282;10.078;2024-01-07T02:17:04;2.78;;;2.50;;
20073;SDS011;10197;54.282;10.078;2024-01-07T02:19:31;3.40;;;2.60;;
20073;SDS011;10197;54.282;10.078;2024-01-07T02:21:59;2.90;;;2.60;;
20073;SDS011;10197;54.282;10.078;2024-01-07T02:24:28;4.53;;;2.83;;
20073;SDS011;10197;54.282;10.078;2024-01-07T02:26:57;2.42;;;2.30;;
20073;SDS011;10197;54.282;10.078;2024-01-07T02:29:27;2.45;;;2.00;;
20073;SDS011;10197;54.282;10.078;2024-01-07T02:31:54;2.28;;;1.98;;
20073;SDS011;10197;54.282;10.078;2024-01-07T02:34:20;3.20;;;2.03;;
20073;SDS011;10197;54.282;10.078;2024-01-07T02:36:47;2.65;;;2.33;;
20073;SDS011;10197;54.282;10.078;2024-01-07T02:39:14;1.92;;;1.83;;
20073;SDS011;10197;54.282;10.078;2024-01-07T02:41:42;2.33;;;1.95;;
20073;SDS011;10197;54.282;10.078;2024-01-07T02:44:09;3.65;;;2.30;;
20073;SDS011;10197;54.282;10.078;2024-01-07T02:46:35;3.88;;;2.30;;
20073;SDS011;10197;54.282;10.078;2024-01-07T02:49:02;2.63;;;2.33;;
20073;SDS011;10197;54.282;10.078;2024-01-07T02:51:29;5.15;;;2.28;;
20073;SDS011;10197;54.282;10.078;2024-01-07T02:53:55;4.38;;;2.50;;
20073;SDS011;10197;54.282;10.078;2024-01-07T02:56:22;5.90;;;2.22;;
20073;SDS011;10197;54.282;10.078;2024-01-07T02:58:51;3.45;;;2.17;;
20073;SDS011;10197;54.282;10.078;2024-01-07T03:01:17;2.28;;;2.08;;
20073;SDS011;10197;54.282;10.078;2024-01-07T03:03:44;2.40;;;2.13;;
20073;SDS011;10197;54.282;10.078;2024-01-07T03:06:11;2.78;;;2.22;;
20073;SDS011;10197;54.282;10.078;2024-01-07T03:08:37;4.18;;;2.80;;
20073;SDS011;10197;54.282;10.078;2024-01-07T03:11:04;4.00;;;2.75;;
20073;SDS011;10197;54.282;10.078;2024-01-07T03:13:31;7.38;;;3.67;;
20073;SDS011;10197;54.282;10.078;2024-01-07T03:16:00;5.43;;;3.58;;
20073;SDS011;10197;54.282;10.078;2024-01-07T03:18:27;7.93;;;3.50;;
20073;SDS011;10197;54.282;10.078;2024-01-07T03:20:55;4.47;;;3.78;;
20073;SDS011;10197;54.282;10.078;2024-01-07T03:23:22;5.15;;;3.53;;
20073;SDS011;10197;54.282;10.078;2024-01-07T03:25:49;7.13;;;4.07;;
20073;SDS011;10197;54.282;10.078;2024-01-07T03:28:15;4.07;;;3.60;;
20073;SDS011;10197;54.282;10.078;2024-01-07T03:30:42;6.70;;;3.55;;
20073;SDS011;10197;54.282;10.078;2024-01-07T03:33:10;3.63;;;3.30;;
20073;SDS011;10197;54.282;10.078;2024-01-07T03:35:37;5.32;;;3.63;;
20073;SDS011;10197;54.282;10.078;2024-01-07T03:38:03;6.72;;;3.55;;
20073;SDS011;10197;54.282;10.078;2024-01-07T03:40:30;6.03;;;3.63;;
20073;SDS011;10197;54.282;10.078;2024-01-07T03:42:57;6.30;;;3.30;;
20073;SDS011;10197;54.282;10.078;2024-01-07T03:45:24;5.65;;;3.97;;
20073;SDS011;10197;54.282;10.078;2024-01-07T03:47:51;4.88;;;3.20;;
20073;SDS011;10197;54.282;10.078;2024-01-07T03:50:19;8.32;;;3.90;;
20073;SDS011;10197;54.282;10.078;2024-01-07T03:52:45;5.25;;;3.40;;
20073;SDS011;10197;54.282;10.078;2024-01-07T03:55:12;6.63;;;4.00;;
20073;SDS011;10197;54.282;10.078;2024-01-07T03:57:39;5.55;;;3.35;;
20073;SDS011;10197;54.282;10.078;2024-01-07T04:00:06;6.47;;;3.80;;
20073;SDS011;10197;54.282;10.078;2024-01-07T04:02:34;8.10;;;3.60;;
20073;SDS011;10197;54.282;10.078;2024-01-07T04:05:01;4.15;;;3.72;;
20073;SDS011;10197;54.282;10.078;2024-01-07T04:07:29;6.50;;;3.70;;
20073;SDS011;10197;54.282;10.078;2024-01-07T04:09:56;4.97;;;3.38;;
20073;SDS011;10197;54.282;10.078;2024-01-07T04:12:23;5.93;;;3.70;;
20073;SDS011;10197;54.282;10.078;2024-01-07T04:14:50;5.15;;;4.25;;
20073;SDS011;10197;54.282;10.078;2024-01-07T04:17:16;6.50;;;3.47;;
20073;SDS011;10197;54.282;10.078;2024-01-07T04:19:43;7.00;;;3.88;;
20073;SDS011;10197;54.282;10.078;2024-01-07T04:22:10;7.43;;;4.15;;
20073;SDS011;10197;54.282;10.078;2024-01-07T04:24:40;5.28;;;3.60;;
20073;SDS011;10197;54.282;10.078;2024-01-07T04:27:07;6.38;;;4.18;;
20073;SDS011;10197;54.282;10.078;2024-01-07T04:29:33;3.25;;;2.95;;
20073;SDS011;10197;54.282;10.078;2024-01-07T04:32:00;5.03;;;3.15;;
20073;SDS011;10197;54.282;10.078;2024-01-07T04:34:26;7.00;;;3.75;;
20073;SDS011;10197;54.282;10.078;2024-01-07T04:36:53;6.95;;;3.75;;
20073;SDS011;10197;54.282;10.078;2024-01-07T04:39:20;4.15;;;3.28;;
20073;SDS011;10197;54.282;10.078;2024-01-07T04:41:48;5.18;;;3.45;;
20073;SDS011;10197;54.282;10.078;2024-01-07T04:44:15;4.57;;;3.30;;
20073;SDS011;10197;54.282;10.078;2024-01-07T04:46:42;6.20;;;3.75;;
20073;SDS011;10197;54.282;10.078;2024-01-07T04:49:08;5.85;;;3.63;;
20073;SDS011;10197;54.282;10.078;2024-01-07T04:51:35;8.30;;;3.70;;
20073;SDS011;10197;54.282;10.078;2024-01-07T04:54:02;5.65;;;3.47;;
20073;SDS011;10197;54.282;10.078;2024-01-07T04:56:30;5.25;;;3.58;;
20073;SDS011;10197;54.282;10.078;2024-01-07T04:58:59;7.03;;;3.63;;
20073;SDS011;10197;54.282;10.078;2024-01-07T05:01:25;6.57;;;3.83;;
20073;SDS011;10197;54.282;10.078;2024-01-07T05:03:52;5.78;;;3.40;;
20073;SDS011;10197;54.282;10.078;2024-01-07T05:06:19;4.88;;;3.60;;
20073;SDS011;10197;54.282;10.078;2024-01-07T05:08:46;4.10;;;3.63;;
20073;SDS011;10197;54.282;10.078;2024-01-07T05:11:12;5.75;;;3.67;;
20073;SDS011;10197;54.282;10.078;2024-01-07T05:13:39;3.58;;;3.25;;
20073;SDS011;10197;54.282;10.078;2024-01-07T05:16:07;6.72;;;3.75;;
20073;SDS011;10197;54.282;10.078;2024-01-07T05:18:34;5.28;;;3.60;;
20073;SDS011;10197;54.282;10.078;2024-01-07T05:21:01;9.65;;;3.90;;
20073;SDS011;10197;54.282;10.078;2024-01-07T05:23:30;5.07;;;3.28;;
20073;SDS011;10197;54.282;10.078;2024-01-07T05:25:59;5.60;;;3.60;;
20073;SDS011;10197;54.282;10.078;2024-01-07T05:28:26;4.90;;;3.75;;
20073;SDS011;10197;54.282;10.078;2024-01-07T05:30:52;6.18;;;3.67;;
20073;SDS011;10197;54.282;10.078;2024-01-07T05:33:21;5.95;;;3.50;;
20073;SDS011;10197;54.282;10.078;2024-01-07T05:35:47;4.72;;;3.55;;
20073;SDS011;10197;54.282;10.078;2024-01-07T05:38:14;5.90;;;3.50;;
20073;SDS011;10197;54.282;10.078;2024-01-07T05:40:41;8.02;;;3.53;;
20073;SDS011;10197;54.282;10.078;2024-01-07T05:43:08;5.78;;;3.40;;
20073;SDS011;10197;54.282;10.078;2024-01-07T05:45:35;6.00;;;3.92;;
20073;SDS011;10197;54.282;10.078;2024-01-07T05:48:01;6.53;;;4.32;;
20073;SDS011;10197;54.282;10.078;2024-01-07T05:50:30;4.57;;;4.03;;
20073;SDS011;10197;54.282;10.078;2024-01-07T05:52:56;4.53;;;3.58;;
20073;SDS011;10197;54.282;10.078;2024-01-07T05:55:23;4.88;;;3.60;;
20073;SDS011;10197;54.282;10.078;2024-01-07T05:57:49;8.32;;;3.55;;
20073;SDS011;10197;54.282;10.078;2024-01-07T06:00:16;9.88;;;4.28;;
20073;SDS011;10197;54.282;10.078;2024-01-07T06:02:44;7.13;;;3.90;;
20073;SDS011;10197;54.282;10.078;2024-01-07T06:05:10;6.53;;;3.88;;
20073;SDS011;10197;54.282;10.078;2024-01-07T06:07:39;6.22;;;4.00;;
20073;SDS011;10197;54.282;10.078;2024-01-07T06:10:05;5.35;;;3.80;;
20073;SDS011;10197;54.282;10.078;2024-01-07T06:12:33;4.30;;;3.72;;
20073;SDS011;10197;54.282;10.078;2024-01-07T06:14:59;5.70;;;3.80;;
20073;SDS011;10197;54.282;10.078;2024-01-07T06:17:26;8.15;;;3.60;;
20073;SDS011;10197;54.282;10.078;2024-01-07T06:19:53;9.18;;;4.22;;
20073;SDS011;10197;54.282;10.078;2024-01-07T06:22:20;5.78;;;3.15;;
20073;SDS011;10197;54.282;10.078;2024-01-07T06:24:48;3.92;;;3.33;;
20073;SDS011;10197;54.282;10.078;2024-01-07T06:27:15;5.32;;;3.65;;
20073;SDS011;10197;54.282;10.078;2024-01-07T06:29:42;6.82;;;3.88;;
20073;SDS011;10197;54.282;10.078;2024-01-07T06:32:09;5.13;;;3.55;;
20073;SDS011;10197;54.282;10.078;2024-01-07T06:34:36;4.10;;;3.70;;
20073;SDS011;10197;54.282;10.078;2024-01-07T06:37:03;5.22;;;3.88;;
20073;SDS011;10197;54.282;10.078;2024-01-07T06:39:30;8.35;;;4.72;;
20073;SDS011;10197;54.282;10.078;2024-01-07T06:41:58;7.85;;;4.25;;
20073;SDS011;10197;54.282;10.078;2024-01-07T06:44:25;5.05;;;3.90;;
20073;SDS011;10197;54.282;10.078;2024-01-07T06:46:51;6.07;;;3.70;;
20073;SDS011;10197;54.282;10.078;2024-01-07T06:49:18;4.40;;;3.90;;
20073;SDS011;10197;54.282;10.078;2024-01-07T06:51:45;4.50;;;3.35;;
20073;SDS011;10197;54.282;10.078;2024-01-07T06:54:11;3.70;;;3.40;;
20073;SDS011;10197;54.282;10.078;2024-01-07T06:56:38;6.43;;;4.07;;
20073;SDS011;10197;54.282;10.078;2024-01-07T06:59:06;5.88;;;3.90;;
20073;SDS011;10197;54.282;10.078;2024-01-07T07:01:33;5.35;;;3.80;;
20073;SDS011;10197;54.282;10.078;2024-01-07T07:04:00;5.20;;;3.63;;
20073;SDS011;10197;54.282;10.078;2024-01-07T07:06:27;4.00;;;3.60;;
20073;SDS011;10197;54.282;10.078;2024-01-07T07:08:54;6.07;;;3.85;;
20073;SDS011;10197;54.282;10.078;2024-01-07T07:11:21;5.43;;;3.58;;
20073;SDS011;10197;54.282;10.078;2024-01-07T07:13:49;5.00;;;4.03;;
20073;SDS011;10197;54.282;10.078;2024-01-07T07:16:17;4.57;;;3.60;;
20073;SDS011;10197;54.282;10.078;2024-01-07T07:18:44;9.05;;;3.97;;
20073;SDS011;10197;54.282;10.078;2024-01-07T07:21:11;5.65;;;3.30;;
20073;SDS011;10197;54.282;10.078;2024-01-07T07:23:38;6.43;;;3.78;;
20073;SDS011;10197;54.282;10.078;2024-01-07T07:26:04;4.18;;;3.78;;
20073;SDS011;10197;54.282;10.078;2024-01-07T07:28:32;4.65;;;3.85;;
20073;SDS011;10197;54.282;10.078;2024-01-07T07:30:58;4.10;;;3.70;;
20073;SDS011;10197;54.282;10.078;2024-01-07T07:33:27;4.85;;;3.75;;
20073;SDS011;10197;54.282;10.078;2024-01-07T07:35:53;4.45;;;3.75;;
20073;SDS011;10197;54.282;10.078;2024-01-07T07:38:20;6.55;;;3.80;;
20073;SDS011;10197;54.282;10.078;2024-01-07T07:40:47;7.85;;;4.18;;
20073;SDS011;10197;54.282;10.078;2024-01-07T07:43:17;7.47;;;4.00;;
20073;SDS011;10197;54.282;10.078;2024-01-07T07:45:44;7.97;;;3.47;;
20073;SDS011;10197;54.282;10.078;2024-01-07T07:48:11;9.63;;;4.78;;
20073;SDS011;10197;54.282;10.078;2024-01-07T07:50:39;4.65;;;4.03;;
20073;SDS011;10197;54.282;10.078;2024-01-07T07:53:06;11.48;;;4.05;;
20073;SDS011;10197;54.282;10.078;2024-01-07T07:55:33;4.00;;;3.60;;
20073;SDS011;10197;54.282;10.078;2024-01-07T07:58:00;6.05;;;4.13;;
20073;SDS011;10197;54.282;10.078;2024-01-07T08:00:27;6.93;;;4.10;;
20073;SDS011;10197;54.282;10.078;2024-01-07T08:02:54;6.05;;;3.70;;
20073;SDS011;10197;54.282;10.078;2024-01-07T08:05:21;4.20;;;3.45;;
20073;SDS011;10197;54.282;10.078;2024-01-07T08:07:49;3.80;;;3.35;;
20073;SDS011;10197;54.282;10.078;2024-01-07T08:10:15;4.20;;;3.45;;
20073;SDS011;10197;54.282;10.078;2024-01-07T08:12:42;4.97;;;3.70;;
20073;SDS011;10197;54.282;10.078;2024-01-07T08:15:09;6.30;;;3.42;;
20073;SDS011;10197;54.282;10.078;2024-01-07T08:17:36;3.45;;;3.15;;
20073;SDS011;10197;54.282;10.078;2024-01-07T08:20:03;5.57;;;3.47;;
20073;SDS011;10197;54.282;10.078;2024-01-07T08:22:30;5.63;;;3.53;;
20073;SDS011;10197;54.282;10.078;2024-01-07T08:24:59;4.18;;;3.17;;
20073;SDS011;10197;54.282;10.078;2024-01-07T08:27:26;3.55;;;3.10;;
20073;SDS011;10197;54.282;10.078;2024-01-07T08:29:54;4.30;;;3.60;;
20073;SDS011;10197;54.282;10.078;2024-01-07T08:32:20;8.55;;;4.40;;
20073;SDS011;10197;54.282;10.078;2024-01-07T08:34:48;3.38;;;3.08;;
20073;SDS011;10197;54.282;10.078;2024-01-07T08:37:14;5.38;;;3.40;;
20073;SDS011;10197;54.282;10.078;2024-01-07T08:39:41;4.15;;;3.28;;
20073;SDS011;10197;54.282;10.078;2024-01-07T08:42:09;5.30;;;3.20;;
20073;SDS011;10197;54.282;10.078;2024-01-07T08:44:36;3.40;;;3.10;;
20073;SDS011;10197;54.282;10.078;2024-01-07T08:47:04;5.53;;;3.78;;
20073;SDS011;10197;54.282;10.078;2024-01-07T08:49:31;4.38;;;3.75;;
20073;SDS011;10197;54.282;10.078;2024-01-07T08:51:59;3.55;;;3.03;;
20073;SDS011;10197;54.282;10.078;2024-01-07T08:54:25;6.50;;;4.25;;
20073;SDS011;10197;54.282;10.078;2024-01-07T08:56:52;4.18;;;3.58;;
20073;SDS011;10197;54.282;10.078;2024-01-07T08:59:20;6.43;;;4.28;;
20073;SDS011;10197;54.282;10.078;2024-01-07T09:01:47;3.97;;;3.58;;
20073;SDS011;10197;54.282;10.078;2024-01-07T09:04:14;5.22;;;4.10;;
20073;SDS011;10197;54.282;10.078;2024-01-07T09:06:41;5.35;;;3.65;;
20073;SDS011;10197;54.282;10.078;2024-01-07T09:09:08;5.15;;;3.70;;
20073;SDS011;10197;54.282;10.078;2024-01-07T09:11:35;5.28;;;3.67;;
20073;SDS011;10197;54.282;10.078;2024-01-07T09:14:02;5.80;;;3.60;;
20073;SDS011;10197;54.282;10.078;2024-01-07T09:16:31;5.60;;;3.70;;
20073;SDS011;10197;54.282;10.078;2024-01-07T09:18:57;4.57;;;3.50;;
20073;SDS011;10197;54.282;10.078;2024-01-07T09:21:24;6.50;;;3.80;;
20073;SDS011;10197;54.282;10.078;2024-01-07T09:23:50;6.22;;;3.90;;
20073;SDS011;10197;54.282;10.078;2024-01-07T09:26:17;5.22;;;3.92;;
20073;SDS011;10197;54.282;10.078;2024-01-07T09:28:44;6.07;;;4.00;;
20073;SDS011;10197;54.282;10.078;2024-01-07T09:31:11;7.07;;;4.20;;
20073;SDS011;10197;54.282;10.078;2024-01-07T09:33:38;6.53;;;4.10;;
20073;SDS011;10197;54.282;10.078;2024-01-07T09:36:06;5.07;;;3.53;;
20073;SDS011;10197;54.282;10.078;2024-01-07T09:38:35;5.32;;;3.22;;
20073;SDS011;10197;54.282;10.078;2024-01-07T09:41:01;3.45;;;2.97;;
20073;SDS011;10197;54.282;10.078;2024-01-07T09:43:28;7.65;;;4.45;;
20073;SDS011;10197;54.282;10.078;2024-01-07T09:45:55;8.27;;;3.83;;
20073;SDS011;10197;54.282;10.078;2024-01-07T09:48:22;4.97;;;3.97;;
20073;SDS011;10197;54.282;10.078;2024-01-07T09:50:51;6.10;;;3.60;;
20073;SDS011;10197;54.282;10.078;2024-01-07T09:53:19;2.90;;;2.60;;
20073;SDS011;10197;54.282;10.078;2024-01-07T09:55:47;2.80;;;2.60;;
20073;SDS011;10197;54.282;10.078;2024-01-07T09:58:18;4.05;;;2.40;;
20073;SDS011;10197;54.282;10.078;2024-01-07T10:00:45;3.03;;;2.50;;
20073;SDS011;10197;54.282;10.078;2024-01-07T10:03:12;2.17;;;2.08;;
20073;SDS011;10197;54.282;10.078;2024-01-07T10:05:39;2.97;;;2.20;;
20073;SDS011;10197;54.282;10.078;2024-01-07T10:08:10;3.50;;;2.75;;
20073;SDS011;10197;54.282;10.078;2024-01-07T10:10:36;2.40;;;2.20;;
20073;SDS011;10197;54.282;10.078;2024-01-07T10:13:05;2.33;;;2.10;;
20073;SDS011;10197;54.282;10.078;2024-01-07T10:15:33;2.80;;;2.40;;
20073;SDS011;10197;54.282;10.078;2024-01-07T10:18:02;2.70;;;2.50;;
20073;SDS011;10197;54.282;10.078;2024-01-07T10:20:31;4.60;;;2.40;;
20073;SDS011;10197;54.282;10.078;2024-01-07T10:22:58;3.20;;;2.50;;
20073;SDS011;10197;54.282;10.078;2024-01-07T10:25:27;2.63;;;2.42;;
20073;SDS011;10197;54.282;10.078;2024-01-07T10:27:54;2.80;;;2.60;;
20073;SDS011;10197;54.282;10.078;2024-01-07T10:30:20;2.90;;;2.70;;
20073;SDS011;10197;54.282;10.078;2024-01-07T10:32:48;3.80;;;2.50;;
20073;SDS011;10197;54.282;10.078;2024-01-07T10:35:14;2.40;;;2.20;;
20073;SDS011;10197;54.282;10.078;2024-01-07T10:37:46;3.35;;;2.55;;
20073;SDS011;10197;54.282;10.078;2024-01-07T10:40:14;4.88;;;3.38;;
20073;SDS011;10197;54.282;10.078;2024-01-07T10:42:44;4.40;;;2.70;;
20073;SDS011;10197;54.282;10.078;2024-01-07T10:45:12;3.03;;;2.65;;
20073;SDS011;10197;54.282;10.078;2024-01-07T10:47:40;4.53;;;3.00;;
20073;SDS011;10197;54.282;10.078;2024-01-07T10:50:07;3.10;;;2.50;;
20073;SDS011;10197;54.282;10.078;2024-01-07T10:52:35;2.75;;;2.55;;
20073;SDS011;10197;54.282;10.078;2024-01-07T10:55:03;3.58;;;2.72;;
20073;SDS011;10197;54.282;10.078;2024-01-07T10:57:41;3.70;;;2.97;;
20073;SDS011;10197;54.282;10.078;2024-01-07T11:00:11;4.00;;;2.70;;
20073;SDS011;10197;54.282;10.078;2024-01-07T11:02:47;3.47;;;3.17;;
20073;SDS011;10197;54.282;10.078;2024-01-07T11:05:20;3.88;;;2.72;;
20073;SDS011;10197;54.282;10.078;2024-01-07T11:07:53;3.75;;;2.63;;
20073;SDS011;10197;54.282;10.078;2024-01-07T11:10:25;3.85;;;2.80;;
20073;SDS011;10197;54.282;10.078;2024-01-07T11:12:59;2.92;;;2.30;;
20073;SDS011;10197;54.282;10.078;2024-01-07T11:18:20;2.58;;;2.33;;
20073;SDS011;10197;54.282;10.078;2024-01-07T11:20:47;3.15;;;2.45;;
20073;SDS011;10197;54.282;10.078;2024-01-07T11:23:26;4.00;;;2.75;;
20073;SDS011;10197;54.282;10.078;2024-01-07T11:25:55;3.92;;;2.78;;
20073;SDS011;10197;54.282;10.078;2024-01-07T11:31:16;4.80;;;2.65;;
20073;SDS011;10197;54.282;10.078;2024-01-07T11:33:44;3.40;;;2.35;;
20073;SDS011;10197;54.282;10.078;2024-01-07T11:36:12;2.60;;;2.40;;
20073;SDS011;10197;54.282;10.078;2024-01-07T11:38:42;3.17;;;2.60;;
20073;SDS011;10197;54.282;10.078;2024-01-07T11:41:09;4.38;;;2.20;;
20073;SDS011;10197;54.282;10.078;2024-01-07T11:43:38;4.03;;;2.88;;
20073;SDS011;10197;54.282;10.078;2024-01-07T11:46:05;3.10;;;2.35;;
20073;SDS011;10197;54.282;10.078;2024-01-07T11:48:33;4.25;;;2.72;;
20073;SDS011;10197;54.282;10.078;2024-01-07T11:51:00;3.45;;;2.80;;
20073;SDS011;10197;54.282;10.078;2024-01-07T11:53:26;2.70;;;2.50;;
20073;SDS011;10197;54.282;10.078;2024-01-07T11:55:53;5.97;;;2.65;;
20073;SDS011;10197;54.282;10.078;2024-01-07T11:58:20;4.22;;;2.75;;
20073;SDS011;10197;54.282;10.078;2024-01-07T12:00:48;2.67;;;2.47;;
20073;SDS011;10197;54.282;10.078;2024-01-07T12:03:15;2.60;;;2.40;;
20073;SDS011;10197;54.282;10.078;2024-01-07T12:05:43;3.10;;;2.47;;
20073;SDS011;10197;54.282;10.078;2024-01-07T12:08:11;4.22;;;2.60;;
20073;SDS011;10197;54.282;10.078;2024-01-07T12:10:37;2.65;;;2.33;;
20073;SDS011;10197;54.282;10.078;2024-01-07T12:13:04;3.15;;;2.38;;
20073;SDS011;10197;54.282;10.078;2024-01-07T12:15:31;2.75;;;2.55;;
20073;SDS011;10197;54.282;10.078;2024-01-07T12:17:58;3.65;;;2.40;;
20073;SDS011;10197;54.282;10.078;2024-01-07T12:20:27;2.50;;;2.40;;
20073;SDS011;10197;54.282;10.078;2024-01-07T12:23:04;5.50;;;2.50;;
20073;SDS011;10197;54.282;10.078;2024-01-07T12:25:31;2.30;;;2.10;;
20073;SDS011;10197;54.282;10.078;2024-01-07T12:27:58;3.00;;;2.03;;
20073;SDS011;10197;54.282;10.078;2024-01-07T12:30:25;3.25;;;2.28;;
20073;SDS011;10197;54.282;10.078;2024-01-07T12:32:52;2.40;;;2.20;;
20073;SDS011;10197;54.282;10.078;2024-01-07T12:35:20;3.72;;;2.38;;
20073;SDS011;10197;54.282;10.078;2024-01-07T12:37:47;4.05;;;2.40;;
20073;SDS011;10197;54.282;10.078;2024-01-07T12:40:15;2.30;;;2.10;;
20073;SDS011;10197;54.282;10.078;2024-01-07T12:42:42;4.35;;;2.83;;
20073;SDS011;10197;54.282;10.078;2024-01-07T12:45:11;4.43;;;2.13;;
20073;SDS011;10197;54.282;10.078;2024-01-07T12:47:40;2.40;;;2.13;;
20073;SDS011;10197;54.282;10.078;2024-01-07T12:50:07;2.65;;;2.10;;
20073;SDS011;10197;54.282;10.078;2024-01-07T12:52:35;2.58;;;2.38;;
20073;SDS011;10197;54.282;10.078;2024-01-07T12:55:02;2.72;;;2.47;;
20073;SDS011;10197;54.282;10.078;2024-01-07T12:57:31;2.60;;;2.40;;
20073;SDS011;10197;54.282;10.078;2024-01-07T12:59:58;4.00;;;2.95;;
20073;SDS011;10197;54.282;10.078;2024-01-07T13:02:25;2.75;;;2.45;;
20073;SDS011;10197;54.282;10.078;2024-01-07T13:04:52;5.90;;;4.32;;
20073;SDS011;10197;54.282;10.078;2024-01-07T13:07:18;4.47;;;3.30;;
20073;SDS011;10197;54.282;10.078;2024-01-07T13:09:45;7.22;;;4.18;;
20073;SDS011;10197;54.282;10.078;2024-01-07T13:12:12;6.72;;;4.20;;
20073;SDS011;10197;54.282;10.078;2024-01-07T13:14:40;7.15;;;4.28;;
20073;SDS011;10197;54.282;10.078;2024-01-07T13:17:07;8.50;;;5.60;;
20073;SDS011;10197;54.282;10.078;2024-01-07T13:19:35;10.60;;;6.15;;
20073;SDS011;10197;54.282;10.078;2024-01-07T13:22:01;4.72;;;4.03;;
20073;SDS011;10197;54.282;10.078;2024-01-07T13:24:28;3.10;;;2.78;;
20073;SDS011;10197;54.282;10.078;2024-01-07T13:26:55;3.10;;;2.90;;
20073;SDS011;10197;54.282;10.078;2024-01-07T13:29:24;6.55;;;4.45;;
20073;SDS011;10197;54.282;10.078;2024-01-07T13:31:52;4.85;;;3.75;;
20073;SDS011;10197;54.282;10.078;2024-01-07T13:34:19;4.75;;;3.30;;
20073;SDS011;10197;54.282;10.078;2024-01-07T13:36:45;4.72;;;3.53;;
20073;SDS011;10197;54.282;10.078;2024-01-07T13:39:12;5.53;;;4.00;;
20073;SDS011;10197;54.282;10.078;2024-01-07T13:41:41;7.43;;;4.63;;
20073;SDS011;10197;54.282;10.078;2024-01-07T13:44:07;6.90;;;5.22;;
20073;SDS011;10197;54.282;10.078;2024-01-07T13:46:42;11.23;;;5.57;;
20073;SDS011;10197;54.282;10.078;2024-01-07T13:49:12;8.75;;;5.68;;
20073;SDS011;10197;54.282;10.078;2024-01-07T13:51:39;7.35;;;4.57;;
20073;SDS011;10197;54.282;10.078;2024-01-07T13:54:06;9.02;;;5.30;;
20073;SDS011;10197;54.282;10.078;2024-01-07T13:56:34;4.70;;;3.47;;
20073;SDS011;10197;54.282;10.078;2024-01-07T13:59:02;7.45;;;4.80;;
20073;SDS011;10197;54.282;10.078;2024-01-07T14:01:29;5.07;;;2.97;;
20073;SDS011;10197;54.282;10.078;2024-01-07T14:03:56;4.10;;;3.70;;
20073;SDS011;10197;54.282;10.078;2024-01-07T14:06:25;3.45;;;2.83;;
20073;SDS011;10197;54.282;10.078;2024-01-07T14:08:52;5.60;;;4.43;;
20073;SDS011;10197;54.282;10.078;2024-01-07T14:13:46;5.38;;;3.30;;
20073;SDS011;10197;54.282;10.078;2024-01-07T14:16:13;8.43;;;5.50;;
20073;SDS011;10197;54.282;10.078;2024-01-07T14:18:40;8.77;;;6.13;;
20073;SDS011;10197;54.282;10.078;2024-01-07T14:21:06;5.25;;;4.40;;
20073;SDS011;10197;54.282;10.078;2024-01-07T14:23:36;10.60;;;6.95;;
20073;SDS011;10197;54.282;10.078;2024-01-07T14:26:03;12.90;;;8.43;;
20073;SDS011;10197;54.282;10.078;2024-01-07T14:28:30;7.53;;;5.00;;
20073;SDS011;10197;54.282;10.078;2024-01-07T14:30:56;10.43;;;7.22;;
20073;SDS011;10197;54.282;10.078;2024-01-07T14:33:24;5.82;;;4.63;;
20073;SDS011;10197;54.282;10.078;2024-01-07T14:35:50;3.35;;;3.00;;
20073;SDS011;10197;54.282;10.078;2024-01-07T14:38:17;4.28;;;3.83;;
20073;SDS011;10197;54.282;10.078;2024-01-07T14:40:45;3.17;;;2.88;;
20073;SDS011;10197;54.282;10.078;2024-01-07T14:43:12;4.80;;;4.13;;